AirNav   Everest Fuels
 
 1858 users online  

6F1 Talihina Municipal Airport
Talihina, Oklahoma, USA

GOING TO TALIHINA?


FAA INFORMATION EFFECTIVE 26 JANUARY 2023

Location

FAA Identifier: 6F1
Lat/Long: 34-42-27.9770N 095-04-25.6290W
34-42.466283N 095-04.427150W
34.7077714,-95.0737858
(estimated)
Elevation: 687 ft. / 209.4 m (surveyed)
Variation: 05E (1985)
From city: 3 miles SW of TALIHINA, OK
Time zone: UTC -6 (UTC -5 during Daylight Saving Time)
Zip code: 74571

Airport Operations

Airport use: Open to the public
Activation date: 10/1979
Control tower: no
ARTCC: FORT WORTH CENTER
FSS: MC ALESTER FLIGHT SERVICE STATION
NOTAMs facility: MLC (NOTAM-D service available)
Attendance: UNATNDD
Wind indicator: lighted, ACTVT WDI LGHTS - CTAF
Segmented circle: yes
Lights: ACTVT MIRL RWY 01/19 - CTAF.
Beacon: white-green (lighted land airport)
Operates sunset to sunrise.

Airport Communications

CTAF: 122.9

Nearby radio navigation aids

VOR radial/distance  VOR name  Freq  Var
PGOr270/23.0RICH MOUNTAIN VORTAC113.5004E

Airport Services

Parking: tiedowns

Runway Information

Runway 1/19

Dimensions: 3300 x 60 ft. / 1006 x 18 m
Surface: asphalt, in good condition
Weight bearing capacity: 
Single wheel: 12.0
Runway edge lights: medium intensity
RUNWAY 1  RUNWAY 19
Latitude: 34-42.208333N34-42.724217N
Longitude: 095-04.531667W095-04.322617W
Elevation: 683.4 ft.684.3 ft.
Traffic pattern: leftleft
Runway heading: 014 magnetic, 019 true194 magnetic, 199 true
Markings: basic, in good conditionbasic, in good condition
Touchdown point: yes, no lightsyes, no lights
Obstructions: none31 ft. trees, 408 ft. from runway, 100 ft. right of centerline, 6:1 slope to clear

Airport Ownership and Management from official FAA records

Ownership: Publicly-owned
Owner: CITY OF TALIHINA
CITY HALL PO BOX 457
TALIHINA, OK 74571
Phone 918-567-2194
Manager: BRANN LINGENFELTER
CITY HALL PO BOX 457
TALIHINA, OK 74571
Phone (918) 413-2088

Airport Operational Statistics

Aircraft based on the field: 2
Single engine airplanes: 1
Gliders airplanes: 1
    
Aircraft operations: avg 38/month *
100% transient general aviation
* for 12-month period ending 31 December 2021

Additional Remarks

FOR CD CTC FORT WORTH ARTCC AT 817-858-7584.

Instrument Procedures

There are no published instrument procedures at 6F1.

Some nearby airports with instrument procedures:

KRKR - Robert S Kerr Airport (29 nm NE)
KGZL - Stigler Regional Airport (35 nm N)
KMLC - Mc Alester Regional Airport (37 nm W)
80F - Antlers Municipal Airport (42 nm SW)
KMEZ - Mena Intermountain Municipal Airport (44 nm E)
 
Loc | Ops | Rwys | IFR | FBO | Links
Com | Nav | Svcs | Stats | Notes
Area around 6F1 (Talihina Municipal Airport)
 
Road maps at: MapQuest Bing Google
 
Aerial photo
WARNING: Photo may not be current or correct
Aerial photo of 6F1 (Talihina Municipal Airport)
Photo by Matthew Nichols
Photo taken 05-May-2008

Do you have a better or more recent aerial photo of Talihina Municipal Airport that you would like to share? If so, please send us your photo.

 
Sectional chart

 
Airport distance calculator
Flying to Talihina Municipal Airport? Find the distance to fly.

From to 6F1

Sunrise and sunset
Times for 01-Feb-2023
 Local
(UTC-6)
 Zulu
(UTC)
Morning civil twilight06:5312:53
Sunrise07:2013:20
Sunset17:4823:48
Evening civil twilight18:1500:15

Current date and time
Zulu (UTC)  01-Feb-2023 17:09:02
Local (UTC-6)  01-Feb-2023 11:09:02
 
METAR
KRKR 
29nm NE 
011655Z AUTO 02003KT 10SM BKN010 BKN031 M02/M05 A3044 RMK AO2
KGZL 
35nm N 
011655Z AUTO 00000KT 10SM FEW013 M02/M04 A3041 RMK AO2
KMLC 
37nm W 
011653Z AUTO VRB03KT 10SM CLR M03/M07 A3042 RMK AO2 SLP307 T10281067
KMEZ 
44nm E 
011655Z AUTO 05005KT 10SM OVC005 M02/M02 A3038 RMK AO2 CIG 004V006 T10221022
KJSV 
46nm N 
011655Z AUTO 12005KT 10SM BKN014 BKN023 M01/M04 A3041 RMK AO2
KHHW 
47nm SW 
011640Z AUTO 00000KT 5SM BR OVC008 M03/M04 A3039 RMK AO2
TAF
KMLC 
37nm W 
011120Z 0112/0212 VRB04KT P6SM BKN100 PROB30 0121/0124 4SM -FZRA BR OVC025 FM020000 VRB03KT 5SM -FZRA BR OVC025 TEMPO 0202/0206 2SM -FZRA OVC015 FM020600 VRB03KT 5SM -FZRA BR OVC015 PROB30 0206/0212 3SM -FZRA BR OVC007
NOTAMs
Click for the latest NOTAMs
NOTAMs are issued by the DoD/FAA and will open in a separate window not controlled by AirNav.

 

 
 

Would you like to see your business listed on this page?

 If your business provides an interesting product or service to pilots, flight crews, aircraft, or users of the Talihina Municipal Airport, you should consider listing it here.  To start the listing process, click on the button below
 
Add a business
 

Other Pages about Talihina Municipal Airport

Update a link
 
Copyright © AirNav, LLC. All rights reserved. Privacy Policy  Contact